createdAt,value
2019-03-23T00:02:02.194Z,91.23
2019-03-23T00:04:38.686Z,91.35
2019-03-23T00:07:13.209Z,91.78
2019-03-23T00:09:47.827Z,91.12
2019-03-23T00:12:22.301Z,90.78
2019-03-23T00:14:57.065Z,91.04
2019-03-23T00:17:33.075Z,91.32
2019-03-23T00:20:10.053Z,91.37
2019-03-23T00:22:44.614Z,91.66
2019-03-23T00:25:19.286Z,91.33
2019-03-23T00:27:55.364Z,91.65
2019-03-23T00:30:29.934Z,92.01
2019-03-23T00:33:04.511Z,92.35
2019-03-23T00:35:40.901Z,92.54
2019-03-23T00:38:15.464Z,92.41
2019-03-23T00:40:50.142Z,92.48
2019-03-23T00:43:24.810Z,92.80
2019-03-23T00:46:02.316Z,92.86
2019-03-23T00:48:36.965Z,92.99
2019-03-23T00:51:11.570Z,93.24
2019-03-23T00:53:47.824Z,93.69
2019-03-23T00:56:22.333Z,93.75
2019-03-23T00:58:56.845Z,93.97
2019-03-23T01:01:31.809Z,94.26
2019-03-23T01:04:06.548Z,94.16
2019-03-23T01:06:51.539Z,94.25
2019-03-23T01:09:17.851Z,94.30
2019-03-23T01:11:53.950Z,94.33
2019-03-23T01:14:28.605Z,94.63
2019-03-23T01:17:03.259Z,95.11
2019-03-23T01:19:37.962Z,95.30
2019-03-23T01:22:12.818Z,95.51
2019-03-23T01:24:47.699Z,95.53
2019-03-23T01:27:22.172Z,95.54
2019-03-23T01:29:56.753Z,95.65
2019-03-23T01:32:31.634Z,95.93
2019-03-23T01:35:09.846Z,96.31
2019-03-23T01:37:44.514Z,96.33
2019-03-23T01:40:19.345Z,96.25
2019-03-23T01:42:53.794Z,96.22
2019-03-23T01:45:28.425Z,96.21
2019-03-23T01:48:03.068Z,96.04
2019-03-23T01:50:38.076Z,95.86
2019-03-23T01:53:12.992Z,95.81
2019-03-23T01:55:47.510Z,95.97
2019-03-23T01:58:22.020Z,95.88
2019-03-23T02:00:57.993Z,95.86
2019-03-23T02:03:33.574Z,95.56
2019-03-23T02:06:09.385Z,95.50
2019-03-23T02:08:45.316Z,95.55
2019-03-23T02:11:20.202Z,95.57
2019-03-23T02:13:54.886Z,95.61
2019-03-23T02:16:29.856Z,95.44
2019-03-23T02:19:04.469Z,94.95
2019-03-23T02:21:39.259Z,95.07
2019-03-23T02:24:13.870Z,95.15
2019-03-23T02:26:48.897Z,95.24
2019-03-23T02:29:23.518Z,95.19
2019-03-23T02:31:58.082Z,95.18
2019-03-23T02:34:32.610Z,95.21
2019-03-23T02:37:07.217Z,95.38
2019-03-23T02:39:42.074Z,95.58
2019-03-23T02:42:16.657Z,95.71
2019-03-23T02:44:51.214Z,95.91
2019-03-23T02:47:26.327Z,96.29
2019-03-23T02:50:02.652Z,95.98
2019-03-23T02:52:38.101Z,95.90
2019-03-23T02:55:13.774Z,95.52
2019-03-23T02:57:48.344Z,95.74
2019-03-23T03:00:23.053Z,95.81
2019-03-23T03:02:57.589Z,95.54
2019-03-23T03:05:32.217Z,95.42
2019-03-23T03:08:08.583Z,95.04
2019-03-23T03:10:43.972Z,94.60
2019-03-23T03:13:20.038Z,94.59
2019-03-23T03:15:54.491Z,95.50
2019-03-23T03:18:29.099Z,95.77
2019-03-23T03:21:03.962Z,95.77
2019-03-23T03:23:38.698Z,95.64
2019-03-23T03:26:13.604Z,96.65
2019-03-23T03:28:48.359Z,96.94
2019-03-23T03:31:22.973Z,96.48
2019-03-23T03:33:57.612Z,96.21
2019-03-23T03:36:33.640Z,95.56
2019-03-23T03:39:12.392Z,94.90
2019-03-23T03:41:47.032Z,95.30
2019-03-23T03:44:22.255Z,94.91
2019-03-23T03:46:56.830Z,95.14
2019-03-23T03:49:31.342Z,94.50
2019-03-23T03:52:05.945Z,93.90
2019-03-23T03:54:40.656Z,94.64
2019-03-23T03:57:15.283Z,94.44
2019-03-23T03:59:50.019Z,94.13
2019-03-23T04:02:24.850Z,94.32
2019-03-23T04:04:59.482Z,94.43
2019-03-23T04:07:35.067Z,94.48
2019-03-23T04:10:10.652Z,94.88
2019-03-23T04:12:45.299Z,95.53
2019-03-23T04:15:20.340Z,95.63
2019-03-23T04:17:54.977Z,95.83
2019-03-23T04:20:29.999Z,96.04
2019-03-23T04:23:04.827Z,96.24
2019-03-23T04:25:39.744Z,96.00
2019-03-23T04:28:16.457Z,96.03
2019-03-23T04:30:51.328Z,96.35
2019-03-23T04:33:26.525Z,96.40
2019-03-23T04:36:01.039Z,95.99
2019-03-23T04:38:36.164Z,95.79
2019-03-23T04:41:12.167Z,95.64
2019-03-23T04:43:46.744Z,95.48
2019-03-23T04:46:21.792Z,95.46
2019-03-23T04:48:56.326Z,95.40
2019-03-23T04:51:31.038Z,95.31
2019-03-23T04:54:05.739Z,95.26
2019-03-23T04:56:40.307Z,95.04
2019-03-23T04:59:14.917Z,94.86
2019-03-23T05:01:49.830Z,94.72
2019-03-23T05:04:24.780Z,94.51
2019-03-23T05:06:59.616Z,94.45
2019-03-23T05:09:34.388Z,94.59
2019-03-23T05:12:09.322Z,94.99
2019-03-23T05:14:43.905Z,95.27
2019-03-23T05:17:20.252Z,95.59
2019-03-23T05:19:54.905Z,95.90
2019-03-23T05:22:29.539Z,96.13
2019-03-23T05:25:04.662Z,96.19
2019-03-23T05:27:39.295Z,96.23
2019-03-23T05:30:13.980Z,96.38
2019-03-23T05:32:48.479Z,97.08
2019-03-23T05:35:23.179Z,97.96
2019-03-23T05:37:59.336Z,98.41
2019-03-23T05:40:33.780Z,98.17
2019-03-23T05:43:08.896Z,98.42
2019-03-23T05:45:43.523Z,98.42
2019-03-23T05:48:18.345Z,98.56
2019-03-23T05:50:52.927Z,98.79
2019-03-23T05:53:29.033Z,99.09
2019-03-23T05:56:03.554Z,99.37
2019-03-23T05:58:38.407Z,99.68
2019-03-23T06:01:13.006Z,100.00
2019-03-23T06:03:47.844Z,100.00
2019-03-23T06:06:22.360Z,100.00
2019-03-23T06:08:57.107Z,100.00
2019-03-23T06:11:32.142Z,100.00
2019-03-23T06:14:06.806Z,100.00
2019-03-23T06:16:41.816Z,100.00
2019-03-23T06:19:16.599Z,100.00
2019-03-23T06:21:51.287Z,100.00
2019-03-23T06:24:26.035Z,99.63
2019-03-23T06:27:00.655Z,99.75
2019-03-23T06:29:35.390Z,99.23
2019-03-23T06:32:09.993Z,99.10
2019-03-23T06:34:44.661Z,98.86
2019-03-23T06:37:19.332Z,99.11
2019-03-23T06:39:53.918Z,99.29
2019-03-23T06:42:28.634Z,98.71
2019-03-23T06:45:05.299Z,98.29
2019-03-23T06:47:39.801Z,98.51
2019-03-23T06:50:16.100Z,98.68
2019-03-23T06:52:51.232Z,98.86
2019-03-23T06:55:26.027Z,99.04
2019-03-23T06:58:00.585Z,98.97
2019-03-23T07:00:37.011Z,98.95
2019-03-23T07:03:11.665Z,98.94
2019-03-23T07:05:46.382Z,97.18
2019-03-23T07:08:31.320Z,96.22
2019-03-23T07:10:59.642Z,95.57
2019-03-23T07:13:34.421Z,94.85
2019-03-23T07:16:09.109Z,95.25
2019-03-23T07:18:43.681Z,96.27
2019-03-23T07:21:18.350Z,96.48
2019-03-23T07:23:54.981Z,96.92
2019-03-23T07:26:31.484Z,95.96
2019-03-23T07:29:07.410Z,94.75
2019-03-23T07:31:42.343Z,94.06
2019-03-23T07:34:17.054Z,92.71
2019-03-23T07:36:51.796Z,91.98
2019-03-23T07:39:30.441Z,90.75
2019-03-23T07:42:04.518Z,90.81
2019-03-23T07:44:39.201Z,90.26
2019-03-23T07:47:13.892Z,90.39
2019-03-23T07:49:48.821Z,89.90
2019-03-23T07:52:23.473Z,89.25
2019-03-23T07:55:00.543Z,89.03
2019-03-23T07:57:35.269Z,88.99
2019-03-23T08:00:11.790Z,89.45
2019-03-23T08:02:46.310Z,89.98
2019-03-23T08:05:21.062Z,89.92
2019-03-23T08:07:55.733Z,89.81
2019-03-23T08:10:33.762Z,88.11
2019-03-23T08:13:08.672Z,87.94
2019-03-23T08:15:43.992Z,87.18
2019-03-23T08:18:18.853Z,87.72
2019-03-23T08:20:53.629Z,87.16
2019-03-23T08:23:28.487Z,87.47
2019-03-23T08:26:04.965Z,87.04
2019-03-23T08:28:39.697Z,87.96
2019-03-23T08:31:15.672Z,86.60
2019-03-23T08:33:52.213Z,86.62
2019-03-23T08:36:28.276Z,86.98
2019-03-23T08:39:03.008Z,86.79
2019-03-23T08:41:37.526Z,86.66
2019-03-23T08:44:12.157Z,85.52
2019-03-23T08:46:48.522Z,85.17
2019-03-23T08:49:23.037Z,85.38
2019-03-23T08:51:57.877Z,85.30
2019-03-23T08:54:32.668Z,85.12
2019-03-23T08:57:07.373Z,85.03
2019-03-23T08:59:43.644Z,84.53
2019-03-23T09:02:18.252Z,83.87
2019-03-23T09:04:52.786Z,84.82
2019-03-23T09:07:28.401Z,84.10
2019-03-23T09:10:04.787Z,83.96
2019-03-23T09:12:39.535Z,83.57
2019-03-23T09:15:15.636Z,83.62
2019-03-23T09:17:50.448Z,83.48
2019-03-23T09:20:25.012Z,83.12
2019-03-23T09:23:01.481Z,82.91
2019-03-23T09:25:36.271Z,82.99
2019-03-23T09:28:10.874Z,82.30
2019-03-23T09:30:45.607Z,81.86
2019-03-23T09:33:20.326Z,82.24
2019-03-23T09:35:56.765Z,82.17
2019-03-23T09:38:31.585Z,81.89
2019-03-23T09:41:06.202Z,81.81
2019-03-23T09:43:42.177Z,82.29
2019-03-23T09:46:16.904Z,82.84
2019-03-23T09:48:52.879Z,82.66
2019-03-23T09:51:29.340Z,82.78
2019-03-23T09:54:04.157Z,82.90
2019-03-23T09:56:38.878Z,83.08
2019-03-23T09:59:13.420Z,82.48
2019-03-23T10:01:49.473Z,81.51
2019-03-23T10:04:24.875Z,81.93
2019-03-23T10:06:59.591Z,81.92
2019-03-23T10:09:34.092Z,82.29
2019-03-23T10:12:09.008Z,82.78
2019-03-23T10:14:43.617Z,82.05
2019-03-23T10:17:18.677Z,81.75
2019-03-23T10:19:53.610Z,82.63
2019-03-23T10:22:28.267Z,82.53
2019-03-23T10:25:03.013Z,81.82
2019-03-23T10:27:37.810Z,81.88
2019-03-23T10:30:12.923Z,81.83
2019-03-23T10:32:47.507Z,81.05
2019-03-23T10:35:22.361Z,81.51
2019-03-23T10:37:57.010Z,82.01
2019-03-23T10:40:32.622Z,81.38
2019-03-23T10:43:07.901Z,80.84
2019-03-23T10:45:44.299Z,80.24
2019-03-23T10:48:19.366Z,80.01
2019-03-23T10:50:55.844Z,80.01
2019-03-23T10:53:30.752Z,79.22
2019-03-23T10:56:05.437Z,79.24
2019-03-23T10:58:40.419Z,78.38
2019-03-23T11:01:15.414Z,78.98
2019-03-23T11:03:50.158Z,78.85
2019-03-23T11:06:24.755Z,79.03
2019-03-23T11:08:59.436Z,78.52
2019-03-23T11:11:33.949Z,78.76
2019-03-23T11:14:11.125Z,78.46
2019-03-23T11:16:45.827Z,77.04
2019-03-23T11:19:20.657Z,76.67
2019-03-23T11:21:55.174Z,76.12
2019-03-23T11:24:29.837Z,76.05
2019-03-23T11:27:04.494Z,75.69
2019-03-23T11:29:39.209Z,74.84
2019-03-23T11:32:14.004Z,73.93
2019-03-23T11:34:48.702Z,73.59
2019-03-23T11:37:23.907Z,73.61
2019-03-23T11:39:58.588Z,73.70
2019-03-23T11:42:33.333Z,74.31
2019-03-23T11:45:08.605Z,72.75
2019-03-23T11:47:43.290Z,71.61
2019-03-23T11:50:18.131Z,71.10
2019-03-23T11:52:52.788Z,71.20
2019-03-23T11:55:27.761Z,70.08
2019-03-23T11:58:02.477Z,68.92
2019-03-23T12:00:37.129Z,68.68
2019-03-23T12:03:12.389Z,67.22
2019-03-23T12:05:47.111Z,66.81
2019-03-23T12:08:22.173Z,65.91
2019-03-23T12:11:02.800Z,65.11
2019-03-23T12:13:34.573Z,63.98
2019-03-23T12:16:09.094Z,63.23
2019-03-23T12:18:43.724Z,63.24
2019-03-23T12:21:19.273Z,62.47
2019-03-23T12:23:54.407Z,63.24
2019-03-23T12:26:29.136Z,63.24
2019-03-23T12:29:03.784Z,64.86
2019-03-23T12:31:38.329Z,64.22
2019-03-23T12:34:12.990Z,63.88
2019-03-23T12:36:47.943Z,64.70
2019-03-23T12:39:22.505Z,64.72
2019-03-23T12:41:57.279Z,64.61
2019-03-23T12:44:31.966Z,63.68
2019-03-23T12:47:06.660Z,64.27
2019-03-23T12:49:41.473Z,63.69
2019-03-23T12:52:16.210Z,64.26
2019-03-23T12:54:50.733Z,63.89
2019-03-23T12:57:25.323Z,64.55
2019-03-23T12:59:59.898Z,64.33
2019-03-23T13:02:34.951Z,63.41
2019-03-23T13:05:09.865Z,64.00
2019-03-23T13:07:45.020Z,62.89
2019-03-23T13:10:19.765Z,62.89
2019-03-23T13:12:54.389Z,62.70
2019-03-23T13:15:30.679Z,62.68
2019-03-23T13:18:05.340Z,63.67
2019-03-23T13:20:40.079Z,62.79
2019-03-23T13:23:14.707Z,62.58
2019-03-23T13:25:49.621Z,61.69
2019-03-23T13:28:24.298Z,61.82
2019-03-23T13:30:58.996Z,61.45
2019-03-23T13:33:33.495Z,61.54
2019-03-23T13:36:09.278Z,61.33
2019-03-23T13:38:43.879Z,61.69
2019-03-23T13:41:20.692Z,60.58
2019-03-23T13:43:58.579Z,61.30
2019-03-23T13:46:33.817Z,60.78
2019-03-23T13:49:16.319Z,60.75
2019-03-23T13:51:52.858Z,60.87
2019-03-23T13:54:27.495Z,59.48
2019-03-23T13:57:02.133Z,61.06
2019-03-23T13:59:36.842Z,60.29
2019-03-23T14:02:13.188Z,61.67
2019-03-23T14:04:47.766Z,61.99
2019-03-23T14:07:22.396Z,61.38
2019-03-23T14:09:57.223Z,61.18
2019-03-23T14:12:31.953Z,61.36
2019-03-23T14:15:07.199Z,61.18
2019-03-23T14:17:42.240Z,61.33
2019-03-23T14:20:17.371Z,62.33
2019-03-23T14:23:02.365Z,61.85
2019-03-23T14:25:30.247Z,61.98
2019-03-23T14:28:08.207Z,62.15
2019-03-23T14:30:44.942Z,62.49
2019-03-23T14:33:19.746Z,62.81
2019-03-23T14:35:54.271Z,63.37
2019-03-23T14:38:28.798Z,64.21
2019-03-23T14:41:03.387Z,64.28
2019-03-23T14:43:38.045Z,63.68
2019-03-23T14:46:12.873Z,63.77
2019-03-23T14:48:47.454Z,63.56
2019-03-23T14:51:22.196Z,63.79
2019-03-23T14:53:56.729Z,64.90
2019-03-23T14:56:31.973Z,65.32
2019-03-23T14:59:06.694Z,66.03
2019-03-23T15:01:42.855Z,66.21
2019-03-23T15:04:17.370Z,66.79
2019-03-23T15:06:52.170Z,67.17
2019-03-23T15:09:27.285Z,67.81
2019-03-23T15:12:01.970Z,67.77
2019-03-23T15:14:38.106Z,68.21
2019-03-23T15:17:12.569Z,68.51
2019-03-23T15:19:47.118Z,68.36
2019-03-23T15:22:22.078Z,68.79
2019-03-23T15:24:57.156Z,68.35
2019-03-23T15:27:31.795Z,68.98
2019-03-23T15:30:06.548Z,69.25
2019-03-23T15:32:41.075Z,69.36
2019-03-23T15:35:16.096Z,69.18
2019-03-23T15:37:52.865Z,69.63
2019-03-23T15:40:27.478Z,69.54
2019-03-23T15:43:02.656Z,69.65
2019-03-23T15:45:37.625Z,70.51
2019-03-23T15:48:12.362Z,71.05
2019-03-23T15:50:48.378Z,70.92
2019-03-23T15:53:23.269Z,71.49
2019-03-23T15:55:57.943Z,71.20
2019-03-23T15:58:32.518Z,72.04
2019-03-23T16:01:07.352Z,72.35
2019-03-23T16:03:43.816Z,72.85
2019-03-23T16:06:18.335Z,73.49
2019-03-23T16:08:52.957Z,73.77
2019-03-23T16:11:27.607Z,73.04
2019-03-23T16:14:02.243Z,73.97
2019-03-23T16:16:37.009Z,74.34
2019-03-23T16:19:12.014Z,75.15
2019-03-23T16:21:46.720Z,75.78
2019-03-23T16:24:21.334Z,76.34
2019-03-23T16:26:55.874Z,75.98
2019-03-23T16:29:31.005Z,76.47
2019-03-23T16:32:05.561Z,77.70
2019-03-23T16:34:40.187Z,78.49
2019-03-23T16:37:14.646Z,79.12
2019-03-23T16:39:49.516Z,78.83
2019-03-23T16:42:26.755Z,79.02
2019-03-23T16:45:01.453Z,79.14
2019-03-23T16:47:36.217Z,78.56
2019-03-23T16:50:11.679Z,78.33
2019-03-23T16:52:46.362Z,78.78
2019-03-23T16:55:21.005Z,78.71
2019-03-23T16:57:55.667Z,79.19
2019-03-23T17:00:38.603Z,78.43
2019-03-23T17:03:13.159Z,78.25
2019-03-23T17:05:47.818Z,78.85
2019-03-23T17:08:22.722Z,78.43
2019-03-23T17:10:57.644Z,78.87
2019-03-23T17:13:32.660Z,78.59
2019-03-23T17:16:07.345Z,79.84
2019-03-23T17:18:42.322Z,79.70
2019-03-23T17:21:17.349Z,79.54
2019-03-23T17:23:52.254Z,80.23
2019-03-23T17:26:26.975Z,80.20
2019-03-23T17:29:03.094Z,80.57
2019-03-23T17:31:37.934Z,81.70
2019-03-23T17:34:13.164Z,81.70
2019-03-23T17:36:49.143Z,82.49
2019-03-23T17:39:23.717Z,83.37
2019-03-23T17:41:58.348Z,83.14
2019-03-23T17:44:33.051Z,84.88
2019-03-23T17:47:07.927Z,85.52
2019-03-23T17:49:42.664Z,85.63
2019-03-23T17:52:17.286Z,86.27
2019-03-23T17:54:53.643Z,85.49
2019-03-23T17:57:28.331Z,86.66
2019-03-23T18:00:05.188Z,87.24
2019-03-23T18:02:40.285Z,87.29
2019-03-23T18:05:15.022Z,87.02
2019-03-23T18:07:49.596Z,88.16
2019-03-23T18:10:28.271Z,87.68
2019-03-23T18:13:03.430Z,88.91
2019-03-23T18:15:39.821Z,89.06
2019-03-23T18:18:14.430Z,88.50
2019-03-23T18:20:50.759Z,87.97
2019-03-23T18:23:25.323Z,88.29
2019-03-23T18:26:00.419Z,87.89
2019-03-23T18:28:35.348Z,87.37
2019-03-23T18:31:10.074Z,86.93
2019-03-23T18:33:45.117Z,86.00
2019-03-23T18:36:19.724Z,86.01
2019-03-23T18:38:54.300Z,86.06
2019-03-23T18:41:29.250Z,86.36
2019-03-23T18:44:04.028Z,85.11
2019-03-23T18:46:38.557Z,85.27
2019-03-23T18:49:13.292Z,85.84
2019-03-23T18:51:48.379Z,85.97
2019-03-23T18:54:22.979Z,85.60
2019-03-23T18:56:57.461Z,85.69
2019-03-23T18:59:32.037Z,85.13
2019-03-23T19:02:06.588Z,85.40
2019-03-23T19:04:41.297Z,84.81
2019-03-23T19:07:17.774Z,85.10
2019-03-23T19:09:52.890Z,85.20
2019-03-23T19:12:27.752Z,85.22
2019-03-23T19:15:02.319Z,85.66
2019-03-23T19:17:38.572Z,85.93
2019-03-23T19:20:13.311Z,85.79
2019-03-23T19:22:48.376Z,85.29
2019-03-23T19:25:22.945Z,85.63
2019-03-23T19:27:59.004Z,85.72
2019-03-23T19:30:33.830Z,84.87
2019-03-23T19:33:10.297Z,84.79
2019-03-23T19:35:44.839Z,84.77
2019-03-23T19:38:19.515Z,84.53
2019-03-23T19:40:54.519Z,84.78
2019-03-23T19:43:29.242Z,84.91
2019-03-23T19:46:04.087Z,84.88
2019-03-23T19:48:39.004Z,85.64
2019-03-23T19:51:14.958Z,85.56
2019-03-23T19:53:49.800Z,86.15
2019-03-23T19:56:24.433Z,87.06
2019-03-23T19:58:59.120Z,87.76
2019-03-23T20:01:34.142Z,87.73
2019-03-23T20:04:08.726Z,88.04
2019-03-23T20:06:43.741Z,88.47
2019-03-23T20:09:18.688Z,88.47
2019-03-23T20:11:53.721Z,89.12
2019-03-23T20:14:28.340Z,89.57
2019-03-23T20:17:05.004Z,89.74
2019-03-23T20:19:39.691Z,90.18
2019-03-23T20:22:14.381Z,90.05
2019-03-23T20:24:48.911Z,89.73
2019-03-23T20:27:24.317Z,89.65
2019-03-23T20:29:59.293Z,89.75
2019-03-23T20:32:34.813Z,89.46
2019-03-23T20:35:11.339Z,89.39
2019-03-23T20:37:48.844Z,89.69
2019-03-23T20:40:25.913Z,90.02
2019-03-23T20:43:01.641Z,90.54
2019-03-23T20:45:36.491Z,90.41
2019-03-23T20:48:11.245Z,90.41
2019-03-23T20:50:46.620Z,90.21
2019-03-23T20:53:22.176Z,90.17
2019-03-23T20:55:58.660Z,90.12
2019-03-23T20:58:35.922Z,89.84
2019-03-23T21:01:10.460Z,89.94
2019-03-23T21:03:44.989Z,89.50
2019-03-23T21:06:20.032Z,89.65
2019-03-23T21:08:54.979Z,89.49
2019-03-23T21:11:29.732Z,89.12
2019-03-23T21:14:07.267Z,89.02
2019-03-23T21:16:42.186Z,88.75
2019-03-23T21:19:17.160Z,89.29
2019-03-23T21:21:51.920Z,89.25
2019-03-23T21:24:26.308Z,89.02
2019-03-23T21:27:00.749Z,88.78
2019-03-23T21:29:35.299Z,89.26
2019-03-23T21:32:10.120Z,89.28
2019-03-23T21:34:46.046Z,89.46
2019-03-23T21:37:21.794Z,89.60
2019-03-23T21:39:56.619Z,89.73
2019-03-23T21:42:31.392Z,89.88
2019-03-23T21:45:07.836Z,89.68
2019-03-23T21:47:42.585Z,89.42
2019-03-23T21:50:17.865Z,88.48
2019-03-23T21:52:52.603Z,87.87
2019-03-23T21:55:28.972Z,87.78
2019-03-23T21:58:03.702Z,86.92
2019-03-23T22:00:38.629Z,87.21
2019-03-23T22:03:14.195Z,87.53
2019-03-23T22:05:48.970Z,87.54
2019-03-23T22:08:23.830Z,87.60
2019-03-23T22:10:59.957Z,87.57
2019-03-23T22:13:35.046Z,87.88
2019-03-23T22:16:09.995Z,87.98
2019-03-23T22:18:44.661Z,87.93
2019-03-23T22:21:21.067Z,87.82
2019-03-23T22:23:57.614Z,87.71
2019-03-23T22:26:32.157Z,87.73
2019-03-23T22:29:08.919Z,88.05
2019-03-23T22:31:43.571Z,88.13
2019-03-23T22:34:18.191Z,88.48
2019-03-23T22:36:53.028Z,89.12
2019-03-23T22:39:27.619Z,89.34
2019-03-23T22:42:02.432Z,89.79
2019-03-23T22:44:37.179Z,89.83
2019-03-23T22:47:12.204Z,89.61
2019-03-23T22:49:46.756Z,89.37
2019-03-23T22:52:21.702Z,89.05
2019-03-23T22:54:56.653Z,88.93
2019-03-23T22:57:31.265Z,89.16
2019-03-23T23:00:08.534Z,89.33
2019-03-23T23:02:44.929Z,89.33
2019-03-23T23:05:19.576Z,88.97
2019-03-23T23:07:54.377Z,88.86
2019-03-23T23:10:29.051Z,88.83
2019-03-23T23:13:03.985Z,88.92
2019-03-23T23:15:38.829Z,88.90
2019-03-23T23:18:13.330Z,89.05
2019-03-23T23:20:48.033Z,89.12
2019-03-23T23:23:22.656Z,89.32
2019-03-23T23:25:57.402Z,89.56
2019-03-23T23:28:32.161Z,89.99
2019-03-23T23:31:08.666Z,90.16
2019-03-23T23:33:43.300Z,89.98
2019-03-23T23:36:18.313Z,89.90
2019-03-23T23:38:53.017Z,90.08
2019-03-23T23:41:27.603Z,90.27
2019-03-23T23:44:02.143Z,90.41
2019-03-23T23:46:36.794Z,90.37
2019-03-23T23:49:11.262Z,90.29
2019-03-23T23:51:50.171Z,90.31
2019-03-23T23:54:22.160Z,90.14
2019-03-23T23:56:57.114Z,90.01
2019-03-23T23:59:31.820Z,89.95
